createdAt,value
2022-08-26T00:00:58.812Z,56.40
2022-08-26T00:03:25.250Z,56.32
2022-08-26T00:05:51.726Z,56.30
2022-08-26T00:08:19.755Z,56.26
2022-08-26T00:10:46.232Z,56.33
2022-08-26T00:13:13.002Z,56.19
2022-08-26T00:15:39.786Z,55.87
2022-08-26T00:18:21.745Z,56.01
2022-08-26T00:20:48.579Z,56.18
2022-08-26T00:23:15.400Z,56.30
2022-08-26T00:25:42.741Z,56.31
2022-08-26T00:28:10.812Z,56.17
2022-08-26T00:30:37.887Z,56.37
2022-08-26T00:33:06.101Z,56.26
2022-08-26T00:35:34.350Z,55.90
2022-08-26T00:38:02.678Z,56.09
2022-08-26T00:40:31.888Z,56.01
2022-08-26T00:42:58.781Z,56.20
2022-08-26T00:45:25.475Z,55.97
2022-08-26T00:48:03.849Z,55.84
2022-08-26T00:50:33.199Z,56.04
2022-08-26T00:53:01.667Z,56.07
2022-08-26T00:55:37.926Z,56.08
2022-08-26T00:58:05.601Z,56.06
2022-08-26T01:00:32.257Z,55.91
2022-08-26T01:03:00.074Z,55.56
2022-08-26T01:05:26.974Z,55.37
2022-08-26T01:07:53.725Z,55.64
2022-08-26T01:10:22.403Z,55.71
2022-08-26T01:12:51.975Z,55.96
2022-08-26T01:15:44.778Z,55.90
2022-08-26T01:18:12.131Z,55.94
2022-08-26T01:20:41.482Z,55.92
2022-08-26T01:23:09.503Z,55.98
2022-08-26T01:25:39.131Z,55.70
2022-08-26T01:28:08.271Z,55.75
2022-08-26T01:30:35.611Z,55.54
2022-08-26T01:33:03.660Z,55.45
2022-08-26T01:35:30.588Z,55.72
2022-08-26T01:37:57.497Z,55.67
2022-08-26T01:40:26.951Z,55.63
2022-08-26T01:42:53.920Z,55.56
2022-08-26T01:45:22.873Z,55.63
2022-08-26T01:47:50.077Z,55.60
2022-08-26T01:50:28.184Z,55.43
2022-08-26T01:52:57.923Z,55.40
2022-08-26T01:55:32.191Z,55.01
2022-08-26T01:58:00.906Z,55.29
2022-08-26T02:00:27.429Z,55.55
2022-08-26T02:03:15.997Z,55.52
2022-08-26T02:05:48.729Z,55.44
2022-08-26T02:08:22.712Z,55.59
2022-08-26T02:10:54.766Z,55.65
2022-08-26T02:13:22.128Z,55.54
2022-08-26T02:15:49.361Z,55.42
2022-08-26T02:18:17.063Z,55.54
2022-08-26T02:20:44.054Z,55.52
2022-08-26T02:23:10.517Z,55.42
2022-08-26T02:25:50.538Z,55.55
2022-08-26T02:28:18.176Z,55.62
2022-08-26T02:30:47.202Z,55.54
2022-08-26T02:33:14.169Z,55.30
2022-08-26T02:35:41.198Z,55.31
2022-08-26T02:38:10.062Z,55.47
2022-08-26T02:40:40.576Z,55.30
2022-08-26T02:43:08.763Z,55.51
2022-08-26T02:45:36.018Z,55.49
2022-08-26T02:48:14.357Z,55.46
2022-08-26T02:50:41.098Z,55.47
2022-08-26T02:53:09.405Z,55.36
2022-08-26T02:55:36.625Z,55.34
2022-08-26T02:58:03.097Z,55.40
2022-08-26T03:00:29.671Z,55.47
2022-08-26T03:02:56.582Z,55.37
2022-08-26T03:05:24.000Z,55.28
2022-08-26T03:07:50.637Z,55.54
2022-08-26T03:10:17.749Z,55.53
2022-08-26T03:12:48.123Z,55.46
2022-08-26T03:15:18.012Z,55.60
2022-08-26T03:17:47.075Z,55.57
2022-08-26T03:20:13.786Z,55.47
2022-08-26T03:22:42.122Z,55.54
2022-08-26T03:25:09.603Z,55.44
2022-08-26T03:27:36.145Z,55.36
2022-08-26T03:30:22.167Z,55.06
2022-08-26T03:32:48.597Z,54.83
2022-08-26T03:35:15.207Z,55.32
2022-08-26T03:37:41.663Z,55.51
2022-08-26T03:40:10.432Z,55.40
2022-08-26T03:42:38.937Z,55.45
2022-08-26T03:45:06.685Z,55.39
2022-08-26T03:47:33.873Z,55.28
2022-08-26T03:50:00.637Z,55.08
2022-08-26T03:52:27.129Z,54.96
2022-08-26T03:54:53.589Z,55.12
2022-08-26T03:57:20.775Z,55.47
2022-08-26T03:59:49.421Z,55.40
2022-08-26T04:02:18.294Z,55.42
2022-08-26T04:04:46.630Z,55.30
2022-08-26T04:07:13.198Z,55.31
2022-08-26T04:09:39.619Z,55.32
2022-08-26T04:12:06.552Z,55.19
2022-08-26T04:14:35.377Z,55.16
2022-08-26T04:17:05.049Z,55.17
2022-08-26T04:19:32.908Z,55.25
2022-08-26T04:21:59.510Z,55.12
2022-08-26T04:24:27.977Z,55.18
2022-08-26T04:26:56.372Z,55.39
2022-08-26T04:29:25.356Z,55.31
2022-08-26T04:31:55.748Z,55.63
2022-08-26T04:34:23.219Z,55.76
2022-08-26T04:36:50.238Z,55.63
2022-08-26T04:39:18.722Z,55.70
2022-08-26T04:41:47.714Z,55.76
2022-08-26T04:44:16.096Z,55.46
2022-08-26T04:46:44.190Z,55.66
2022-08-26T04:49:11.314Z,55.58
2022-08-26T04:51:37.902Z,55.52
2022-08-26T04:54:06.967Z,55.58
2022-08-26T04:56:37.163Z,55.52
2022-08-26T04:59:04.842Z,55.49
2022-08-26T05:01:34.753Z,55.51
2022-08-26T05:04:07.932Z,55.51
2022-08-26T05:06:36.906Z,55.51
2022-08-26T05:09:03.947Z,55.58
2022-08-26T05:11:30.464Z,55.58
2022-08-26T05:14:01.632Z,55.61
2022-08-26T05:16:30.325Z,55.71
2022-08-26T05:18:57.544Z,55.63
2022-08-26T05:21:26.626Z,55.57
2022-08-26T05:23:57.003Z,55.37
2022-08-26T05:26:26.181Z,55.25
2022-08-26T05:28:54.685Z,55.35
2022-08-26T05:31:23.729Z,55.30
2022-08-26T05:33:50.373Z,55.23
2022-08-26T05:36:18.810Z,55.48
2022-08-26T05:38:45.443Z,55.35
2022-08-26T05:41:24.838Z,55.27
2022-08-26T05:43:52.378Z,55.50
2022-08-26T05:46:19.336Z,55.44
2022-08-26T05:48:46.878Z,55.38
2022-08-26T05:51:14.283Z,55.26
2022-08-26T05:53:43.826Z,55.16
2022-08-26T05:56:24.708Z,55.17
2022-08-26T05:58:51.184Z,55.05
2022-08-26T06:01:19.581Z,54.98
2022-08-26T06:03:50.017Z,55.02
2022-08-26T06:06:20.679Z,54.81
2022-08-26T06:08:54.069Z,54.89
2022-08-26T06:11:25.387Z,54.62
2022-08-26T06:13:53.392Z,54.65
2022-08-26T06:16:23.005Z,54.61
2022-08-26T06:18:51.746Z,54.60
2022-08-26T06:21:22.618Z,54.67
2022-08-26T06:24:08.796Z,54.58
2022-08-26T06:26:36.713Z,54.44
2022-08-26T06:29:03.761Z,54.45
2022-08-26T06:31:32.076Z,54.33
2022-08-26T06:33:59.625Z,54.51
2022-08-26T06:36:28.657Z,54.43
2022-08-26T06:38:56.809Z,54.42
2022-08-26T06:41:23.510Z,54.43
2022-08-26T06:43:50.516Z,54.24
2022-08-26T06:46:18.733Z,54.15
2022-08-26T06:48:46.091Z,54.27
2022-08-26T06:51:17.062Z,54.18
2022-08-26T06:53:46.874Z,54.17
2022-08-26T06:56:15.053Z,54.00
2022-08-26T06:58:42.634Z,54.24
2022-08-26T07:01:19.807Z,54.04
2022-08-26T07:03:48.365Z,54.22
2022-08-26T07:06:15.569Z,54.01
2022-08-26T07:08:43.183Z,54.12
2022-08-26T07:11:10.502Z,53.97
2022-08-26T07:13:37.751Z,54.22
2022-08-26T07:16:08.404Z,54.21
2022-08-26T07:18:36.761Z,54.20
2022-08-26T07:21:07.165Z,54.11
2022-08-26T07:23:34.330Z,54.20
2022-08-26T07:26:05.021Z,54.33
2022-08-26T07:28:31.535Z,54.15
2022-08-26T07:30:58.282Z,54.27
2022-08-26T07:33:24.835Z,54.31
2022-08-26T07:35:52.365Z,54.38
2022-08-26T07:38:18.945Z,54.25
2022-08-26T07:40:45.516Z,54.22
2022-08-26T07:43:12.095Z,54.20
2022-08-26T07:45:38.832Z,54.00
2022-08-26T07:48:05.364Z,54.21
2022-08-26T07:50:49.242Z,54.04
2022-08-26T07:53:18.177Z,54.17
2022-08-26T07:55:46.227Z,54.24
2022-08-26T07:58:12.740Z,54.31
2022-08-26T08:00:39.469Z,54.27
2022-08-26T08:03:06.342Z,54.39
2022-08-26T08:05:33.911Z,54.35
2022-08-26T08:08:01.464Z,54.29
2022-08-26T08:10:48.729Z,54.24
2022-08-26T08:13:15.457Z,54.48
2022-08-26T08:15:41.905Z,54.65
2022-08-26T08:18:15.757Z,54.75
2022-08-26T08:20:47.715Z,54.99
2022-08-26T08:23:29.693Z,54.73
2022-08-26T08:26:03.244Z,55.00
2022-08-26T08:28:29.877Z,54.83
2022-08-26T08:30:57.057Z,54.88
2022-08-26T08:33:24.478Z,55.00
2022-08-26T08:35:50.949Z,55.17
2022-08-26T08:38:17.561Z,55.21
2022-08-26T08:40:44.801Z,55.26
2022-08-26T08:43:13.703Z,55.17
2022-08-26T08:45:47.077Z,55.27
2022-08-26T08:48:18.849Z,55.40
2022-08-26T08:50:50.593Z,55.75
2022-08-26T08:53:37.491Z,55.58
2022-08-26T08:56:04.175Z,55.66
2022-08-26T08:58:37.346Z,55.88
2022-08-26T09:01:06.118Z,56.03
2022-08-26T09:03:42.959Z,56.12
2022-08-26T09:06:17.040Z,56.22
2022-08-26T09:08:45.493Z,56.19
2022-08-26T09:11:12.107Z,55.98
2022-08-26T09:13:39.887Z,56.15
2022-08-26T09:16:27.719Z,56.05
2022-08-26T09:19:15.175Z,56.25
2022-08-26T09:21:45.784Z,56.32
2022-08-26T09:24:13.966Z,56.58
2022-08-26T09:26:40.983Z,56.80
2022-08-26T09:29:15.913Z,56.49
2022-08-26T09:31:42.598Z,56.65
2022-08-26T09:34:17.876Z,56.50
2022-08-26T09:36:45.557Z,56.80
2022-08-26T09:39:24.061Z,56.70
2022-08-26T09:42:09.425Z,56.84
2022-08-26T09:44:52.093Z,57.12
2022-08-26T09:47:21.863Z,56.92
2022-08-26T09:49:56.640Z,57.38
2022-08-26T09:52:24.650Z,57.37
2022-08-26T09:55:03.407Z,57.22
2022-08-26T09:57:31.525Z,57.46
2022-08-26T10:00:01.238Z,57.73
2022-08-26T10:02:32.083Z,57.84
2022-08-26T10:04:59.288Z,58.11
2022-08-26T10:07:40.341Z,57.99
2022-08-26T10:10:12.557Z,58.00
2022-08-26T10:12:49.375Z,57.61
2022-08-26T10:15:16.667Z,57.85
2022-08-26T10:18:11.138Z,57.54
2022-08-26T10:20:46.038Z,57.16
2022-08-26T10:23:17.294Z,56.99
2022-08-26T10:25:47.850Z,56.62
2022-08-26T10:28:25.445Z,56.52
2022-08-26T10:30:56.491Z,56.57
2022-08-26T10:33:23.493Z,56.17
2022-08-26T10:35:53.206Z,56.36
2022-08-26T10:38:23.901Z,56.30
2022-08-26T10:40:55.071Z,56.01
2022-08-26T10:43:25.704Z,55.68
2022-08-26T10:45:55.760Z,55.54
2022-08-26T10:48:35.433Z,55.74
2022-08-26T10:51:04.198Z,55.93
2022-08-26T10:53:32.990Z,55.66
2022-08-26T10:56:24.961Z,55.96
2022-08-26T10:58:52.450Z,55.94
2022-08-26T11:01:46.999Z,55.67
2022-08-26T11:04:35.416Z,55.62
2022-08-26T11:07:23.657Z,56.09
2022-08-26T11:09:52.146Z,56.32
2022-08-26T11:12:37.262Z,56.30
2022-08-26T11:15:10.213Z,56.44
2022-08-26T11:17:48.235Z,56.15
2022-08-26T11:20:23.884Z,56.04
2022-08-26T11:22:51.626Z,56.31
2022-08-26T11:25:19.326Z,56.07
2022-08-26T11:27:46.370Z,56.22
2022-08-26T11:30:15.653Z,56.05
2022-08-26T11:32:52.740Z,55.96
2022-08-26T11:35:24.245Z,56.12
2022-08-26T11:37:53.138Z,56.29
2022-08-26T11:40:22.219Z,56.42
2022-08-26T11:42:58.134Z,56.27
2022-08-26T11:45:41.018Z,56.47
2022-08-26T11:48:28.238Z,56.53
2022-08-26T11:51:03.847Z,56.63
2022-08-26T11:53:32.653Z,56.56
2022-08-26T11:56:01.714Z,56.41
2022-08-26T11:58:28.817Z,56.48
2022-08-26T12:01:09.800Z,56.44
2022-08-26T12:03:44.231Z,56.57
2022-08-26T12:06:31.090Z,56.59
2022-08-26T12:08:59.878Z,56.63
2022-08-26T12:11:26.949Z,56.76
2022-08-26T12:17:33.715Z,56.63
2022-08-26T12:20:19.226Z,56.43
2022-08-26T12:22:52.364Z,56.35
2022-08-26T12:25:36.130Z,56.52
2022-08-26T12:28:05.407Z,56.49
2022-08-26T12:30:32.046Z,56.23
2022-08-26T12:33:22.874Z,56.25
2022-08-26T12:35:54.199Z,56.55
2022-08-26T12:38:23.317Z,56.41
2022-08-26T12:40:50.312Z,56.40
2022-08-26T12:43:36.236Z,56.21
2022-08-26T12:46:04.580Z,56.26
2022-08-26T12:48:36.033Z,55.96
2022-08-26T12:51:03.117Z,56.06
2022-08-26T12:53:32.220Z,56.11
2022-08-26T12:56:01.483Z,55.96
2022-08-26T12:58:28.056Z,55.89
2022-08-26T13:01:00.742Z,56.03
2022-08-26T13:03:54.622Z,56.30
2022-08-26T13:06:24.050Z,56.33
2022-08-26T13:09:06.474Z,56.48
2022-08-26T13:11:34.796Z,56.54
2022-08-26T13:14:01.777Z,56.40
2022-08-26T13:16:28.818Z,56.50
2022-08-26T13:18:57.188Z,56.44
2022-08-26T13:21:25.864Z,56.46
2022-08-26T13:23:52.886Z,56.38
2022-08-26T13:26:19.658Z,56.42
2022-08-26T13:28:47.706Z,56.37
2022-08-26T13:31:29.606Z,55.86
2022-08-26T13:33:56.991Z,55.90
2022-08-26T13:36:23.533Z,55.73
2022-08-26T13:38:51.924Z,55.56
2022-08-26T13:41:19.293Z,55.37
2022-08-26T13:43:56.437Z,55.12
2022-08-26T13:46:23.097Z,54.85
2022-08-26T13:48:49.641Z,54.80
2022-08-26T13:51:18.529Z,54.90
2022-08-26T13:53:44.985Z,54.84
2022-08-26T13:56:11.567Z,54.84
2022-08-26T13:58:38.009Z,54.74
2022-08-26T14:01:04.614Z,54.88
2022-08-26T14:03:31.281Z,54.64
2022-08-26T14:05:57.838Z,54.50
2022-08-26T14:08:24.329Z,54.64
2022-08-26T14:10:50.892Z,54.48
2022-08-26T14:13:18.348Z,54.51
2022-08-26T14:15:48.199Z,54.27
2022-08-26T14:18:16.978Z,54.38
2022-08-26T14:20:47.591Z,54.31
2022-08-26T14:23:14.631Z,54.19
2022-08-26T14:25:41.175Z,54.10
2022-08-26T14:28:07.800Z,54.17
2022-08-26T14:30:34.417Z,54.11
2022-08-26T14:33:00.861Z,54.12
2022-08-26T14:35:28.742Z,53.97
2022-08-26T14:37:55.826Z,54.02
2022-08-26T14:40:23.207Z,53.94
2022-08-26T14:42:53.805Z,53.97
2022-08-26T14:45:22.759Z,53.84
2022-08-26T14:47:50.329Z,53.72
2022-08-26T14:50:18.392Z,53.80
2022-08-26T14:53:03.538Z,53.80
2022-08-26T14:55:32.436Z,53.75
2022-08-26T14:57:58.977Z,54.10
2022-08-26T15:00:26.272Z,53.78
2022-08-26T15:02:53.185Z,53.75
2022-08-26T15:05:19.993Z,53.78
2022-08-26T15:07:49.071Z,53.67
2022-08-26T15:10:19.808Z,53.57
2022-08-26T15:12:52.179Z,53.50
2022-08-26T15:15:26.271Z,53.55
2022-08-26T15:17:55.747Z,53.45
2022-08-26T15:20:22.268Z,53.41
2022-08-26T15:22:48.906Z,53.16
2022-08-26T15:25:20.297Z,53.44
2022-08-26T15:27:51.845Z,53.29
2022-08-26T15:30:19.662Z,53.31
2022-08-26T15:32:48.390Z,53.32
2022-08-26T15:35:19.893Z,53.37
2022-08-26T15:37:54.170Z,53.38
2022-08-26T15:40:24.385Z,53.36
2022-08-26T15:43:06.115Z,53.63
2022-08-26T15:45:45.088Z,53.31
2022-08-26T15:48:14.524Z,53.48
2022-08-26T15:51:00.447Z,53.26
2022-08-26T15:53:31.785Z,53.19
2022-08-26T15:56:02.524Z,53.40
2022-08-26T15:58:32.483Z,53.35
2022-08-26T16:01:07.458Z,53.36
2022-08-26T16:03:33.967Z,53.50
2022-08-26T16:06:00.799Z,53.48
2022-08-26T16:08:27.319Z,53.34
2022-08-26T16:10:56.839Z,53.25
2022-08-26T16:13:27.331Z,53.35
2022-08-26T16:16:10.366Z,53.33
2022-08-26T16:18:37.130Z,53.40
2022-08-26T16:21:13.309Z,53.21
2022-08-26T16:23:46.817Z,53.28
2022-08-26T16:26:21.774Z,53.14
2022-08-26T16:28:48.422Z,53.42
2022-08-26T16:31:15.200Z,53.43
2022-08-26T16:33:41.707Z,53.61
2022-08-26T16:36:08.586Z,53.67
2022-08-26T16:38:35.872Z,53.49
2022-08-26T16:41:02.766Z,53.47
2022-08-26T16:43:29.331Z,53.46
2022-08-26T16:45:56.088Z,53.55
2022-08-26T16:48:23.571Z,53.47
2022-08-26T16:50:50.247Z,53.67
2022-08-26T16:53:16.692Z,53.75
2022-08-26T16:55:46.911Z,53.65
2022-08-26T16:58:13.528Z,53.85
2022-08-26T17:00:41.071Z,53.64
2022-08-26T17:03:07.660Z,53.44
2022-08-26T17:05:44.638Z,53.71
2022-08-26T17:08:11.745Z,53.54
2022-08-26T17:10:38.576Z,53.79
2022-08-26T17:13:05.031Z,53.98
2022-08-26T17:15:31.756Z,53.98
2022-08-26T17:17:58.262Z,53.98
2022-08-26T17:20:25.792Z,53.91
2022-08-26T17:22:53.703Z,53.96
2022-08-26T17:25:20.179Z,54.20
2022-08-26T17:27:46.965Z,54.43
2022-08-26T17:30:13.764Z,54.32
2022-08-26T17:32:41.437Z,54.60
2022-08-26T17:35:08.234Z,54.68
2022-08-26T17:37:35.069Z,54.75
2022-08-26T17:40:05.781Z,54.81
2022-08-26T17:42:32.327Z,54.90
2022-08-26T17:44:58.888Z,55.12
2022-08-26T17:47:25.418Z,55.31
2022-08-26T17:49:51.857Z,55.60
2022-08-26T17:52:18.442Z,55.58
2022-08-26T17:54:44.893Z,55.57
2022-08-26T17:57:11.363Z,55.55
2022-08-26T17:59:38.670Z,55.58
2022-08-26T18:02:07.408Z,55.93
2022-08-26T18:04:33.880Z,55.67
2022-08-26T18:07:00.412Z,55.61
2022-08-26T18:09:29.191Z,55.59
2022-08-26T18:11:56.119Z,55.36
2022-08-26T18:14:22.589Z,55.55
2022-08-26T18:16:48.996Z,55.69
2022-08-26T18:19:15.712Z,55.94
2022-08-26T18:21:42.194Z,56.01
2022-08-26T18:24:13.386Z,56.19
2022-08-26T18:26:41.442Z,56.16
2022-08-26T18:29:08.160Z,56.18
2022-08-26T18:31:34.860Z,56.15
2022-08-26T18:34:02.201Z,56.14
2022-08-26T18:36:34.049Z,56.18
2022-08-26T18:39:01.048Z,56.26
2022-08-26T18:41:28.728Z,56.14
2022-08-26T18:43:55.602Z,55.94
2022-08-26T18:46:24.945Z,56.34
2022-08-26T18:48:52.268Z,56.26
2022-08-26T18:51:19.716Z,56.15
2022-08-26T18:53:46.335Z,56.09
2022-08-26T18:56:15.374Z,56.26
2022-08-26T18:58:47.495Z,56.17
2022-08-26T19:01:17.425Z,56.06
2022-08-26T19:07:00.418Z,56.10
2022-08-26T19:09:27.271Z,56.04
2022-08-26T19:11:54.292Z,55.97
2022-08-26T19:14:20.801Z,56.09
2022-08-26T19:16:48.652Z,55.99
2022-08-26T19:19:15.365Z,55.98
2022-08-26T19:21:41.949Z,55.89
2022-08-26T19:24:15.346Z,55.78
2022-08-26T19:26:57.454Z,55.98
2022-08-26T19:29:25.771Z,55.98
2022-08-26T19:31:52.336Z,55.74
2022-08-26T19:34:20.955Z,55.73
2022-08-26T19:36:47.710Z,55.87
2022-08-26T19:39:14.219Z,55.71
2022-08-26T19:41:40.803Z,55.73
2022-08-26T19:44:13.158Z,55.79
2022-08-26T19:46:40.387Z,55.72
2022-08-26T19:49:07.053Z,55.65
2022-08-26T19:51:35.003Z,55.83
2022-08-26T19:54:01.777Z,55.53
2022-08-26T19:56:28.638Z,55.62
2022-08-26T19:58:55.630Z,55.63
2022-08-26T20:01:22.666Z,55.47
2022-08-26T20:03:49.441Z,55.45
2022-08-26T20:06:16.895Z,55.58
2022-08-26T20:08:44.674Z,55.46
2022-08-26T20:11:14.569Z,55.47
2022-08-26T20:13:41.887Z,55.52
2022-08-26T20:16:10.388Z,55.55
2022-08-26T20:18:55.342Z,55.47
2022-08-26T20:21:27.541Z,55.49
2022-08-26T20:23:54.853Z,55.41
2022-08-26T20:26:21.282Z,55.21
2022-08-26T20:28:47.693Z,55.42
2022-08-26T20:31:19.383Z,55.27
2022-08-26T20:33:46.683Z,55.32
2022-08-26T20:36:13.641Z,55.14
2022-08-26T20:38:40.068Z,55.32
2022-08-26T20:41:06.754Z,55.49
2022-08-26T20:43:33.257Z,55.40
2022-08-26T20:46:00.554Z,55.18
2022-08-26T20:48:27.134Z,55.35
2022-08-26T20:50:56.666Z,55.32
2022-08-26T20:53:24.284Z,55.26
2022-08-26T20:55:53.821Z,55.22
2022-08-26T20:58:23.738Z,55.29
2022-08-26T21:00:50.501Z,55.15
2022-08-26T21:03:17.021Z,55.27
2022-08-26T21:05:43.531Z,55.22
2022-08-26T21:08:10.240Z,55.21
2022-08-26T21:10:39.392Z,55.18
2022-08-26T21:13:06.513Z,55.21
2022-08-26T21:15:33.098Z,55.26
2022-08-26T21:17:59.849Z,55.09
2022-08-26T21:20:26.374Z,55.14
2022-08-26T21:22:52.942Z,55.16
2022-08-26T21:25:19.429Z,55.14
2022-08-26T21:27:46.087Z,55.18
2022-08-26T21:30:13.738Z,55.13
2022-08-26T21:32:40.471Z,55.00
2022-08-26T21:35:07.546Z,55.12
2022-08-26T21:37:34.264Z,54.96
2022-08-26T21:40:02.087Z,54.99
2022-08-26T21:42:32.996Z,54.90
2022-08-26T21:44:59.591Z,54.80
2022-08-26T21:47:26.152Z,54.97
2022-08-26T21:49:53.258Z,54.99
2022-08-26T21:52:21.232Z,54.99
2022-08-26T21:54:49.291Z,54.98
2022-08-26T21:57:16.598Z,55.01
2022-08-26T21:59:43.082Z,54.99
2022-08-26T22:02:11.162Z,55.01
2022-08-26T22:04:37.757Z,55.02
2022-08-26T22:07:04.317Z,54.78
2022-08-26T22:09:31.592Z,54.92
2022-08-26T22:11:58.748Z,54.97
2022-08-26T22:14:30.629Z,55.01
2022-08-26T22:16:58.680Z,54.90
2022-08-26T22:19:25.286Z,54.91
2022-08-26T22:21:53.550Z,54.81
2022-08-26T22:24:20.985Z,54.69
2022-08-26T22:26:47.561Z,54.79
2022-08-26T22:29:14.655Z,54.68
2022-08-26T22:31:41.642Z,54.88
2022-08-26T22:34:09.384Z,54.82
2022-08-26T22:36:37.409Z,54.98
2022-08-26T22:39:10.404Z,55.04
2022-08-26T22:41:37.162Z,55.31
2022-08-26T22:44:04.094Z,55.47
2022-08-26T22:46:30.857Z,55.41
2022-08-26T22:48:57.330Z,55.45
2022-08-26T22:51:23.819Z,55.46
2022-08-26T22:53:50.290Z,55.47
2022-08-26T22:56:19.037Z,55.31
2022-08-26T22:58:45.727Z,55.34
2022-08-26T23:01:12.676Z,55.26
2022-08-26T23:03:39.238Z,55.29
2022-08-26T23:06:06.391Z,55.14
2022-08-26T23:08:32.863Z,55.11
2022-08-26T23:10:59.310Z,55.06
2022-08-26T23:13:25.769Z,55.14
2022-08-26T23:15:59.374Z,55.23
2022-08-26T23:18:25.883Z,55.37
2022-08-26T23:20:52.417Z,55.42
2022-08-26T23:23:18.873Z,55.39
2022-08-26T23:25:45.273Z,55.23
2022-08-26T23:28:12.785Z,55.54
2022-08-26T23:30:39.302Z,55.18
2022-08-26T23:33:05.861Z,55.11
2022-08-26T23:35:32.371Z,55.31
2022-08-26T23:37:59.356Z,55.57
2022-08-26T23:40:27.930Z,55.82
2022-08-26T23:42:55.674Z,55.91
2022-08-26T23:45:22.729Z,55.99
2022-08-26T23:47:50.561Z,55.92
2022-08-26T23:50:18.470Z,56.03
2022-08-26T23:53:04.056Z,55.96
2022-08-26T23:55:31.506Z,55.89
2022-08-26T23:57:57.968Z,55.92
